Time;durP1;ratioP1;P1;durP2;ratioP2;P2;SDS_P1;SDS_P2;PMS_P1;PMS_P2;Temp;Humidity;BMP_temperature;BMP_pressure;BME280_temperature;BME280_humidity;BME280_pressure;Samples;Min_cycle;Max_cycle;Signal;HPM_P1;HPM_P2
2022/06/12 00:07:13;;;;;;;8.45;4.00;;;;;;;17.23;100.00;100890.31;20834645;28;20059;-75
2022/06/12 00:17:15;;;;;;;6.63;4.40;;;;;;;17.18;100.00;100906.34;20847003;28;20049;-74
2022/06/12 00:27:16;;;;;;;9.05;4.53;;;;;;;17.17;100.00;100899.34;20842273;28;20049;-74
2022/06/12 00:37:20;;;;;;;6.97;4.30;;;;;;;17.06;100.00;100898.84;20839313;28;20103;-74
2022/06/12 00:47:23;;;;;;;9.80;4.90;;;;;;;16.81;100.00;100903.22;20840260;28;20092;-76
2022/06/12 00:57:25;;;;;;;8.48;4.78;;;;;;;16.49;100.00;100913.06;20839381;28;20046;-73
2022/06/12 01:07:50;;;;;;;7.63;4.32;;;;;;;16.48;100.00;100915.72;20837903;28;20502;-73
2022/06/12 01:17:55;;;;;;;10.43;4.22;;;;;;;16.34;100.00;100902.97;20838077;28;20460;-74
2022/06/12 01:28:06;;;;;;;8.02;5.00;;;;;;;16.14;100.00;100901.81;20837855;28;20050;-73
2022/06/12 01:38:26;;;;;;;8.55;4.78;;;;;;;16.09;100.00;100911.63;20836259;28;20498;-73
2022/06/12 01:48:44;;;;;;;9.27;5.10;;;;;;;16.07;100.00;100899.41;20836140;28;20461;-73
2022/06/12 01:58:53;;;;;;;7.75;4.47;;;;;;;16.04;100.00;100905.63;20835337;28;20088;-73
2022/06/12 02:09:09;;;;;;;7.10;4.60;;;;;;;15.95;100.00;100903.25;20834228;28;20099;-73
2022/06/12 02:19:23;;;;;;;7.55;4.63;;;;;;;15.89;100.00;100911.38;20833818;28;20160;-74
2022/06/12 02:29:37;;;;;;;8.18;5.00;;;;;;;15.42;100.00;100918.81;20832593;28;20556;-73
2022/06/12 02:39:44;;;;;;;10.30;5.00;;;;;;;15.32;100.00;100909.44;20832945;28;20042;-74
2022/06/12 02:49:48;;;;;;;9.48;5.50;;;;;;;15.24;100.00;100901.75;20842730;28;20060;-74
2022/06/12 03:00:08;;;;;;;9.20;5.60;;;;;;;15.21;100.00;100915.00;20831943;28;20103;-73
2022/06/12 03:30:53;;;;;;;7.88;5.32;;;;;;;15.06;100.00;100926.81;20745568;28;20042;-73
2022/06/12 03:41:03;;;;;;;9.77;5.43;;;;;;;15.11;100.00;100935.47;20755144;28;20058;-73
2022/06/12 03:51:22;;;;;;;8.80;5.95;;;;;;;15.21;100.00;100933.47;20763647;28;20100;-73
2022/06/12 04:01:25;;;;;;;8.63;5.60;;;;;;;15.38;100.00;100936.53;20847443;22;20046;-70
2022/06/12 04:11:29;;;;;;;7.10;4.88;;;;;;;15.51;100.00;100931.78;20833396;28;20049;-67
2022/06/12 04:21:42;;;;;;;8.65;5.35;;;;;;;15.55;100.00;100948.41;20831047;28;20064;-67
2022/06/12 04:31:47;;;;;;;7.82;4.95;;;;;;;16.50;100.00;100941.22;20830844;28;20112;-68
2022/06/12 04:41:49;;;;;;;8.18;4.10;;;;;;;18.53;100.00;100933.09;20829853;28;20050;-68
2022/06/12 04:51:54;;;;;;;6.95;4.28;;;;;;;18.97;98.72;100941.06;20829616;28;20050;-65
2022/06/12 05:01:56;;;;;;;9.38;4.25;;;;;;;18.50;100.00;100933.25;20828818;28;20045;-66
2022/06/12 05:11:58;;;;;;;10.07;4.43;;;;;;;18.15;100.00;100934.59;20828468;28;20072;-65
2022/06/12 05:22:00;;;;;;;6.40;4.30;;;;;;;18.26;100.00;100939.50;20825941;28;20119;-65
2022/06/12 05:32:04;;;;;;;7.88;4.30;;;;;;;18.30;100.00;100936.69;20824541;28;20426;-65
2022/06/12 05:42:06;;;;;;;10.55;5.25;;;;;;;18.40;100.00;100934.53;20824606;28;20467;-65
2022/06/12 05:52:07;;;;;;;8.55;4.70;;;;;;;18.60;98.01;100949.66;20824897;28;20119;-66
2022/06/12 06:02:10;;;;;;;7.90;4.47;;;;;;;18.82;98.30;100937.25;20822686;28;20041;-66
2022/06/12 06:12:12;;;;;;;7.38;4.43;;;;;;;19.38;100.00;100933.97;20823292;28;20045;-65
2022/06/12 06:22:16;;;;;;;9.52;4.70;;;;;;;19.65;99.25;100937.25;20822532;28;20144;-65
2022/06/12 06:32:18;;;;;;;9.02;5.15;;;;;;;19.94;97.47;100940.38;20821150;28;20546;-65
2022/06/12 06:42:20;;;;;;;8.63;4.65;;;;;;;20.16;97.70;100941.09;20820796;28;20056;-66
2022/06/12 06:52:21;;;;;;;12.10;4.57;;;;;;;20.42;92.58;100947.84;20820957;28;20049;-65
2022/06/12 07:02:23;;;;;;;10.63;5.20;;;;;;;20.65;94.44;100943.22;20814792;28;20045;-66
2022/06/12 07:12:24;;;;;;;11.75;5.30;;;;;;;20.84;91.31;100948.50;20767251;28;20053;-65
2022/06/12 07:22:32;;;;;;;11.02;4.70;;;;;;;21.00;90.06;100945.03;20779182;28;20076;-65
2022/06/12 07:32:34;;;;;;;7.47;4.88;;;;;;;21.36;88.40;100930.78;20728702;28;20057;-65
2022/06/12 07:42:36;;;;;;;13.60;5.32;;;;;;;21.73;87.46;100935.03;20785587;28;20056;-65
2022/06/12 07:52:39;;;;;;;10.55;5.05;;;;;;;21.93;88.72;100922.44;20809845;28;20060;-65
2022/06/12 08:02:43;;;;;;;8.90;4.35;;;;;;;22.22;86.10;100910.19;20807821;28;20058;-65
2022/06/12 08:12:46;;;;;;;7.20;3.90;;;;;;;22.58;85.86;100901.91;20785023;28;20046;-70
2022/06/12 08:22:47;;;;;;;10.35;3.83;;;;;;;22.92;86.21;100895.47;20727328;28;20054;-67
2022/06/12 08:32:52;;;;;;;8.07;4.20;;;;;;;23.27;84.40;100895.16;20740088;28;20470;-69
2022/06/12 08:43:09;;;;;;;7.72;3.80;;;;;;;23.50;81.86;100891.94;20740949;28;20050;-67
2022/06/12 08:53:27;;;;;;;6.07;3.30;;;;;;;23.93;78.31;100880.41;20740636;28;20048;-67
2022/06/12 09:03:35;;;;;;;5.43;3.05;;;;;;;24.45;79.77;100874.38;20738657;28;20046;-67
2022/06/12 09:13:57;;;;;;;7.75;3.40;;;;;;;24.71;75.99;100864.59;20770491;28;20050;-68
2022/06/12 09:24:42;;;;;;;7.65;3.55;;;;;;;25.17;74.66;100859.66;20819979;28;20049;-68
2022/06/12 09:34:49;;;;;;;;;;;;;;;25.28;70.06;100849.06;20818668;28;20053;-67
2022/06/12 09:44:54;;;;;;;6.05;2.72;;;;;;;25.64;64.41;100846.56;20817997;28;19956;-68
2022/06/12 09:55:15;;;;;;;5.75;2.60;;;;;;;26.18;59.84;100844.41;20817464;28;20111;-69
2022/06/12 10:05:22;;;;;;;4.38;1.77;;;;;;;26.44;52.00;100823.69;20816232;28;20053;-68
2022/06/12 10:15:37;;;;;;;6.30;1.80;;;;;;;26.75;55.39;100808.78;20768969;28;20084;-71
2022/06/12 10:25:43;;;;;;;5.20;1.90;;;;;;;26.59;51.18;100790.31;20732237;28;20103;-68
2022/06/12 10:36:05;;;;;;;4.45;1.85;;;;;;;27.35;51.95;100777.22;20730281;28;20388;-68
2022/06/12 10:46:30;;;;;;;4.50;1.90;;;;;;;27.72;48.84;100780.53;20731330;28;20054;-67
2022/06/12 10:57:01;;;;;;;4.72;2.40;;;;;;;27.46;49.74;100760.25;20730165;28;20050;-67
2022/06/12 11:07:40;;;;;;;7.45;2.30;;;;;;;26.73;50.86;100746.22;20729500;28;20104;-69
2022/06/12 11:18:22;;;;;;;4.43;1.90;;;;;;;27.68;50.05;100721.66;20794890;28;20125;-68
2022/06/12 11:28:48;;;;;;;4.03;1.88;;;;;;;27.39;48.35;100729.44;20799935;28;20049;-67
2022/06/12 11:39:04;;;;;;;6.68;2.00;;;;;;;27.32;45.42;100711.13;20808539;28;20057;-67
2022/06/12 11:49:15;;;;;;;4.28;1.70;;;;;;;27.99;41.48;100693.97;20809747;28;20143;-66
2022/06/12 11:59:32;;;;;;;3.70;1.70;;;;;;;28.53;40.48;100681.31;20810171;28;20080;-67
2022/06/12 12:09:48;;;;;;;5.25;2.25;;;;;;;28.37;43.78;100669.19;20824178;28;20053;-70
2022/06/12 12:19:55;;;;;;;3.53;1.55;;;;;;;29.38;38.67;100654.88;20824159;28;20045;-69
2022/06/12 12:29:59;;;;;;;4.03;1.70;;;;;;;28.68;38.67;100654.88;20824046;28;20053;-67
2022/06/12 12:50:22;;;;;;;4.95;2.17;;;;;;;27.93;44.56;100642.47;20821863;28;20147;-67
2022/06/12 13:00:33;;;;;;;8.98;2.05;;;;;;;28.28;43.51;100636.78;20821021;28;20049;-68
2022/06/12 13:10:53;;;;;;;5.95;2.30;;;;;;;28.03;44.14;100613.81;20820462;28;20053;-68
2022/06/12 13:21:00;;;;;;;6.18;2.20;;;;;;;28.54;44.95;100610.28;20820334;28;20445;-70
2022/06/12 13:31:04;;;;;;;5.28;1.80;;;;;;;27.86;46.42;100610.69;20819215;28;20140;-68
2022/06/12 13:41:23;;;;;;;6.53;1.95;;;;;;;28.74;43.55;100577.03;20818051;28;20053;-67
2022/06/12 13:51:53;;;;;;;6.80;1.92;;;;;;;29.47;41.81;100566.84;20817380;28;20056;-69
2022/06/12 14:01:54;;;;;;;5.18;1.60;;;;;;;29.64;37.76;100546.41;20813464;28;20060;-70
2022/06/12 14:11:58;;;;;;;5.43;1.70;;;;;;;29.19;38.90;100546.97;20793142;28;20116;-68
2022/06/12 14:22:12;;;;;;;4.47;1.20;;;;;;;29.48;39.29;100540.72;20726713;28;20400;-68
2022/06/12 14:32:27;;;;;;;5.45;1.50;;;;;;;28.97;41.06;100552.59;20726053;28;20421;-70
2022/06/12 14:42:29;;;;;;;3.05;1.50;;;;;;;28.48;40.21;100557.81;20726448;28;20108;-68
2022/06/12 14:52:31;;;;;;;3.33;1.50;;;;;;;29.18;38.22;100529.09;20726013;28;20053;-69
2022/06/12 15:02:32;;;;;;;2.97;1.42;;;;;;;29.02;37.70;100526.06;20726124;28;20131;-68
2022/06/12 15:12:34;;;;;;;4.00;1.50;;;;;;;29.06;37.98;100509.47;20750454;28;20049;-70
2022/06/12 15:22:35;;;;;;;5.50;1.50;;;;;;;29.37;37.25;100496.72;20807665;28;20103;-68
2022/06/12 15:32:37;;;;;;;2.97;1.40;;;;;;;29.09;38.98;100497.56;20803459;28;20038;-69
2022/06/12 15:42:39;;;;;;;5.65;1.75;;;;;;;28.92;39.81;100488.28;20825437;28;20079;-68
2022/06/12 15:52:41;;;;;;;3.17;1.45;;;;;;;28.81;39.66;100483.03;20824879;28;20056;-69
2022/06/12 16:02:42;;;;;;;5.40;1.80;;;;;;;28.78;39.85;100476.06;20820748;28;20053;-69
2022/06/12 16:12:45;;;;;;;4.72;1.70;;;;;;;29.05;39.11;100453.00;20822591;28;20053;-69
2022/06/12 16:22:47;;;;;;;;;;;;;;;29.32;38.06;100450.44;20821539;28;20494;-69
2022/06/12 16:32:51;;;;;;;6.25;1.83;;;;;;;29.29;38.00;100445.31;20819199;28;19921;-69
2022/06/12 16:42:53;;;;;;;5.45;1.20;;;;;;;28.62;40.04;100446.97;20818956;28;20049;-68
2022/06/12 16:52:54;;;;;;;5.70;1.70;;;;;;;28.49;39.20;100443.69;20816294;28;20059;-73
2022/06/12 17:02:56;;;;;;;5.03;1.45;;;;;;;28.54;40.18;100446.81;20818667;28;20107;-68
2022/06/12 17:12:59;;;;;;;4.35;1.35;;;;;;;28.49;39.99;100445.53;20818457;28;20127;-68
2022/06/12 17:23:00;;;;;;;2.70;1.33;;;;;;;28.27;40.23;100449.28;20814404;28;20046;-68
2022/06/12 17:33:02;;;;;;;3.15;1.50;;;;;;;28.03;44.83;100449.63;20815462;28;20108;-69
2022/06/12 17:43:05;;;;;;;3.50;1.25;;;;;;;27.40;44.29;100456.84;20817101;28;20080;-68
2022/06/12 17:53:07;;;;;;;3.50;1.40;;;;;;;27.10;45.77;100458.47;20813058;28;20049;-68
2022/06/12 18:03:09;;;;;;;6.83;1.97;;;;;;;27.03;45.49;100465.31;20785977;28;20081;-68
2022/06/12 18:13:11;;;;;;;3.67;1.50;;;;;;;27.25;44.86;100464.38;20759656;28;20049;-67
2022/06/12 18:23:16;;;;;;;3.38;1.60;;;;;;;27.23;44.90;100453.75;20811353;28;20084;-68
2022/06/12 18:33:18;;;;;;;5.72;1.77;;;;;;;26.72;45.60;100458.94;20809371;28;20042;-65
2022/06/12 18:43:20;;;;;;;4.20;1.67;;;;;;;26.60;48.02;100461.66;20807837;28;20127;-67
2022/06/12 18:53:21;;;;;;;5.43;1.70;;;;;;;25.87;49.49;100461.28;20809910;28;20564;-66
2022/06/12 19:03:24;;;;;;;4.10;1.63;;;;;;;25.54;50.42;100462.94;20804064;28;20049;-66
2022/06/12 19:13:25;;;;;;;3.97;1.63;;;;;;;25.32;51.74;100469.94;20806192;28;20064;-67
2022/06/12 19:23:27;;;;;;;4.68;1.70;;;;;;;25.14;53.59;100465.97;20783278;28;20057;-68
2022/06/12 19:33:28;;;;;;;4.60;1.85;;;;;;;24.97;55.22;100461.84;20765815;28;20104;-68
2022/06/12 19:43:30;;;;;;;2.67;1.50;;;;;;;24.60;57.56;100471.75;20728446;28;20050;-67
2022/06/12 19:53:32;;;;;;;3.83;2.00;;;;;;;24.36;58.27;100494.91;20796442;28;20115;-68
2022/06/12 20:03:34;;;;;;;3.92;1.70;;;;;;;24.17;59.56;100512.28;20810028;28;20053;-68
2022/06/12 20:13:36;;;;;;;5.32;1.90;;;;;;;24.01;61.23;100506.31;20795813;28;20054;-67
2022/06/12 20:23:38;;;;;;;4.20;1.65;;;;;;;23.61;62.92;100498.31;20768365;28;20489;-66
2022/06/12 20:33:40;;;;;;;3.88;1.80;;;;;;;23.50;63.85;100485.69;20824214;28;20052;-66
2022/06/12 20:43:42;;;;;;;4.53;1.75;;;;;;;23.25;65.01;100474.97;20823849;28;20205;-66
2022/06/12 20:53:43;;;;;;;6.15;1.90;;;;;;;23.00;65.34;100470.41;20822126;28;20080;-66
2022/06/12 21:03:45;;;;;;;4.65;1.70;;;;;;;23.02;64.35;100473.81;20821621;28;20484;-66
2022/06/12 21:13:46;;;;;;;5.22;1.73;;;;;;;22.96;64.86;100471.56;20820996;28;20049;-68
2022/06/12 21:23:48;;;;;;;6.18;2.13;;;;;;;22.76;64.77;100468.34;20784115;28;20062;-66
2022/06/12 21:33:49;;;;;;;6.20;1.88;;;;;;;22.75;64.88;100461.28;20737755;28;20050;-65
2022/06/12 21:43:51;;;;;;;5.57;1.80;;;;;;;22.61;65.70;100453.31;20738000;28;20054;-66
2022/06/12 22:04:20;;;;;;;4.28;1.80;;;;;;;22.30;71.75;100480.28;20760176;28;20048;-67
2022/06/12 22:14:21;;;;;;;3.75;1.83;;;;;;;22.43;62.72;100481.22;20823326;28;20441;-68
2022/06/12 22:24:22;;;;;;;5.78;1.60;;;;;;;22.16;56.47;100489.13;20822324;28;20054;-66
2022/06/12 22:34:25;;;;;;;4.55;1.50;;;;;;;21.98;53.55;100512.41;20821020;28;20422;-66
2022/06/12 22:44:26;;;;;;;4.40;1.35;;;;;;;21.82;52.53;100548.97;20819710;28;20049;-66
2022/06/12 22:54:28;;;;;;;2.40;0.95;;;;;;;21.94;53.03;100633.53;20819940;28;20072;-67
2022/06/12 23:04:29;;;;;;;4.43;1.23;;;;;;;21.98;54.84;100640.41;20818303;28;20049;-67
2022/06/12 23:14:31;;;;;;;4.65;1.30;;;;;;;22.01;49.23;100618.91;20820580;28;20084;-67
2022/06/12 23:24:32;;;;;;;5.22;1.30;;;;;;;21.74;48.60;100630.22;20818472;28;20072;-67
2022/06/12 23:34:34;;;;;;;6.10;1.67;;;;;;;21.61;49.43;100617.75;20817619;28;20107;-68
2022/06/12 23:44:35;;;;;;;8.88;1.42;;;;;;;21.23;50.90;100610.09;20817317;28;20115;-66
2022/06/12 23:54:37;;;;;;;6.55;1.23;;;;;;;21.08;51.37;100581.66;20818762;28;20057;-64
